sensor_id;sensor_type;location;lat;lon;timestamp;pressure;altitude;pressure_sealevel;temperature;humidity
25610;BME280;13479;49.044;8.716;2022-09-13T04:15:33;98638.50;;;13.30;83.54
25610;BME280;13479;49.044;8.716;2022-09-13T04:17:59;98638.53;;;13.38;83.45
25610;BME280;13479;49.044;8.716;2022-09-13T04:20:25;98643.25;;;13.44;83.55
25610;BME280;13479;49.044;8.716;2022-09-13T04:22:54;98644.44;;;13.50;83.39
25610;BME280;13479;49.044;8.716;2022-09-13T04:25:21;98644.81;;;13.55;83.01
25610;BME280;13479;49.044;8.716;2022-09-13T04:27:47;98656.81;;;13.59;82.63
25610;BME280;13479;49.044;8.716;2022-09-13T04:32:42;98651.03;;;13.72;82.49
25610;BME280;13479;49.044;8.716;2022-09-13T04:35:08;98668.28;;;14.03;80.41
25610;BME280;13479;49.044;8.716;2022-09-13T04:37:33;98631.09;;;14.01;78.90
25610;BME280;13479;49.044;8.716;2022-09-13T04:39:59;98610.72;;;13.92;79.65
25610;BME280;13479;49.044;8.716;2022-09-13T04:42:24;98609.22;;;13.89;79.62
25610;BME280;13479;49.044;8.716;2022-09-13T04:44:49;98607.88;;;13.85;79.71
25610;BME280;13479;49.044;8.716;2022-09-13T04:47:15;98598.88;;;13.86;79.89
25610;BME280;13479;49.044;8.716;2022-09-13T04:49:40;98600.69;;;13.86;79.75
25610;BME280;13479;49.044;8.716;2022-09-13T04:52:05;98616.06;;;13.92;79.01
25610;BME280;13479;49.044;8.716;2022-09-13T04:54:30;98621.59;;;14.07;78.36
25610;BME280;13479;49.044;8.716;2022-09-13T04:56:56;98624.25;;;14.15;77.88
25610;BME280;13479;49.044;8.716;2022-09-13T04:59:21;98602.56;;;14.02;77.95
25610;BME280;13479;49.044;8.716;2022-09-13T05:01:47;98590.06;;;14.02;78.49
25610;BME280;13479;49.044;8.716;2022-09-13T05:04:12;98584.22;;;13.99;78.92
25610;BME280;13479;49.044;8.716;2022-09-13T05:06:37;98588.06;;;14.13;78.93
25610;BME280;13479;49.044;8.716;2022-09-13T05:09:03;98617.59;;;14.28;77.94
25610;BME280;13479;49.044;8.716;2022-09-13T05:11:30;98634.28;;;14.38;77.48
25610;BME280;13479;49.044;8.716;2022-09-13T05:13:57;98624.59;;;14.37;77.66
25610;BME280;13479;49.044;8.716;2022-09-13T05:16:24;98624.97;;;14.42;77.34
25610;BME280;13479;49.044;8.716;2022-09-13T05:18:50;98623.28;;;14.58;76.64
25610;BME280;13479;49.044;8.716;2022-09-13T05:21:16;98613.28;;;14.68;76.39
25610;BME280;13479;49.044;8.716;2022-09-13T05:23:42;98610.44;;;14.61;76.37
25610;BME280;13479;49.044;8.716;2022-09-13T05:26:07;98595.72;;;14.57;76.49
25610;BME280;13479;49.044;8.716;2022-09-13T05:28:34;98598.38;;;14.65;76.98
25610;BME280;13479;49.044;8.716;2022-09-13T05:31:04;98619.94;;;14.72;75.89
25610;BME280;13479;49.044;8.716;2022-09-13T05:33:33;98618.63;;;14.76;75.81
25610;BME280;13479;49.044;8.716;2022-09-13T05:35:59;98608.59;;;14.78;75.75
25610;BME280;13479;49.044;8.716;2022-09-13T05:38:24;98620.91;;;14.96;75.30
25610;BME280;13479;49.044;8.716;2022-09-13T05:40:54;98612.88;;;15.04;75.34
25610;BME280;13479;49.044;8.716;2022-09-13T05:43:21;98607.97;;;15.24;74.23
25610;BME280;13479;49.044;8.716;2022-09-13T05:45:47;98588.59;;;15.22;74.67
25610;BME280;13479;49.044;8.716;2022-09-13T05:48:12;98595.41;;;15.33;74.78
25610;BME280;13479;49.044;8.716;2022-09-13T05:50:37;98596.38;;;15.40;74.95
25610;BME280;13479;49.044;8.716;2022-09-13T05:53:03;98603.69;;;15.55;75.05
25610;BME280;13479;49.044;8.716;2022-09-13T05:55:29;98613.66;;;15.69;74.51
25610;BME280;13479;49.044;8.716;2022-09-13T05:57:55;98620.53;;;15.95;73.99
25610;BME280;13479;49.044;8.716;2022-09-13T06:00:20;98639.44;;;16.25;72.34
25610;BME280;13479;49.044;8.716;2022-09-13T06:02:46;98639.94;;;16.44;70.57
25610;BME280;13479;49.044;8.716;2022-09-13T06:05:11;98609.53;;;16.36;70.22
25610;BME280;13479;49.044;8.716;2022-09-13T06:07:39;98584.22;;;16.39;70.37
25610;BME280;13479;49.044;8.716;2022-09-13T06:10:06;98606.44;;;16.48;69.62
25610;BME280;13479;49.044;8.716;2022-09-13T06:12:32;98601.00;;;16.56;68.55
25610;BME280;13479;49.044;8.716;2022-09-13T06:14:57;98586.22;;;16.60;68.38
25610;BME280;13479;49.044;8.716;2022-09-13T06:17:22;98565.31;;;16.56;68.75
25610;BME280;13479;49.044;8.716;2022-09-13T06:19:47;98565.28;;;16.79;68.21
25610;BME280;13479;49.044;8.716;2022-09-13T06:22:13;98589.03;;;17.42;65.97
25610;BME280;13479;49.044;8.716;2022-09-13T06:24:38;98578.00;;;17.88;64.05
25610;BME280;13479;49.044;8.716;2022-09-13T06:27:04;98540.28;;;18.18;63.65
25610;BME280;13479;49.044;8.716;2022-09-13T06:29:30;98555.88;;;18.51;61.95
25610;BME280;13479;49.044;8.716;2022-09-13T06:31:55;98554.97;;;19.01;59.81
25610;BME280;13479;49.044;8.716;2022-09-13T06:34:20;98523.13;;;19.05;59.48
25610;BME280;13479;49.044;8.716;2022-09-13T06:36:45;98525.00;;;19.04;58.81
25610;BME280;13479;49.044;8.716;2022-09-13T06:39:11;98517.31;;;19.01;59.11
25610;BME280;13479;49.044;8.716;2022-09-13T06:41:36;98520.50;;;19.18;58.86
25610;BME280;13479;49.044;8.716;2022-09-13T06:44:02;98519.94;;;19.36;58.18
25610;BME280;13479;49.044;8.716;2022-09-13T06:46:29;98516.66;;;19.41;58.21
25610;BME280;13479;49.044;8.716;2022-09-13T06:49:01;98529.47;;;20.08;56.64
25610;BME280;13479;49.044;8.716;2022-09-13T06:51:27;98548.56;;;21.32;53.75
25610;BME280;13479;49.044;8.716;2022-09-13T06:53:54;98546.59;;;22.24;51.35
25610;BME280;13479;49.044;8.716;2022-09-13T06:56:29;98556.75;;;23.23;48.78
25610;BME280;13479;49.044;8.716;2022-09-13T06:59:00;98562.75;;;24.59;46.42
25610;BME280;13479;49.044;8.716;2022-09-13T07:01:37;98582.88;;;25.87;42.15
25610;BME280;13479;49.044;8.716;2022-09-13T07:04:06;98606.72;;;26.43;40.80
25610;BME280;13479;49.044;8.716;2022-09-13T07:06:34;98602.09;;;26.77;40.34
25610;BME280;13479;49.044;8.716;2022-09-13T07:09:02;98610.38;;;27.22;38.42
25610;BME280;13479;49.044;8.716;2022-09-13T07:11:32;98615.38;;;27.08;38.76
25610;BME280;13479;49.044;8.716;2022-09-13T07:13:58;98625.44;;;27.07;39.04
25610;BME280;13479;49.044;8.716;2022-09-13T07:16:26;98616.00;;;26.30;40.15
25610;BME280;13479;49.044;8.716;2022-09-13T07:18:56;98572.47;;;25.55;42.09
25610;BME280;13479;49.044;8.716;2022-09-13T07:21:22;98527.22;;;25.08;42.98
25610;BME280;13479;49.044;8.716;2022-09-13T07:23:49;98500.81;;;24.44;44.71
25610;BME280;13479;49.044;8.716;2022-09-13T07:26:15;98496.53;;;23.70;46.49
25610;BME280;13479;49.044;8.716;2022-09-13T07:28:43;98480.41;;;22.95;48.17
25610;BME280;13479;49.044;8.716;2022-09-13T07:31:09;98476.00;;;22.39;49.65
25610;BME280;13479;49.044;8.716;2022-09-13T07:33:36;98478.50;;;21.89;51.47
25610;BME280;13479;49.044;8.716;2022-09-13T07:36:02;98470.97;;;21.59;52.50
25610;BME280;13479;49.044;8.716;2022-09-13T07:38:40;98456.75;;;21.39;53.38
25610;BME280;13479;49.044;8.716;2022-09-13T07:41:08;98450.63;;;21.18;53.95
25610;BME280;13479;49.044;8.716;2022-09-13T07:43:35;98442.88;;;20.90;54.59
25610;BME280;13479;49.044;8.716;2022-09-13T07:46:05;98452.03;;;20.68;55.26
25610;BME280;13479;49.044;8.716;2022-09-13T07:48:33;98440.22;;;20.70;55.58
25610;BME280;13479;49.044;8.716;2022-09-13T07:51:01;98439.81;;;20.79;55.43
25610;BME280;13479;49.044;8.716;2022-09-13T07:53:28;98444.56;;;20.77;55.39
25610;BME280;13479;49.044;8.716;2022-09-13T07:55:58;98447.50;;;20.76;55.11
25610;BME280;13479;49.044;8.716;2022-09-13T07:58:24;98437.13;;;20.66;55.91
25610;BME280;13479;49.044;8.716;2022-09-13T08:00:49;98454.09;;;20.66;55.91
25610;BME280;13479;49.044;8.716;2022-09-13T08:03:14;98446.63;;;20.68;56.27
25610;BME280;13479;49.044;8.716;2022-09-13T08:05:40;98450.56;;;20.86;55.78
25610;BME280;13479;49.044;8.716;2022-09-13T08:08:06;98472.69;;;21.02;55.54
25610;BME280;13479;49.044;8.716;2022-09-13T08:10:34;98504.75;;;21.30;54.50
25610;BME280;13479;49.044;8.716;2022-09-13T08:12:59;98526.28;;;21.43;54.52
25610;BME280;13479;49.044;8.716;2022-09-13T08:15:26;98533.66;;;21.75;53.87
25610;BME280;13479;49.044;8.716;2022-09-13T08:17:51;98540.47;;;22.10;52.21
25610;BME280;13479;49.044;8.716;2022-09-13T08:20:18;98550.84;;;22.45;51.30
25610;BME280;13479;49.044;8.716;2022-09-13T08:22:43;98550.81;;;22.70;51.17
25610;BME280;13479;49.044;8.716;2022-09-13T08:25:09;98558.16;;;23.44;49.91
25610;BME280;13479;49.044;8.716;2022-09-13T08:27:34;98577.72;;;24.61;47.47
25610;BME280;13479;49.044;8.716;2022-09-13T08:29:59;98588.53;;;25.56;44.46
25610;BME280;13479;49.044;8.716;2022-09-13T08:32:25;98591.03;;;26.67;42.26
25610;BME280;13479;49.044;8.716;2022-09-13T08:34:50;98596.47;;;27.63;40.07
25610;BME280;13479;49.044;8.716;2022-09-13T08:37:15;98613.16;;;28.16;38.82
25610;BME280;13479;49.044;8.716;2022-09-13T08:39:40;98620.66;;;28.03;37.16
25610;BME280;13479;49.044;8.716;2022-09-13T08:44:45;98634.34;;;27.59;38.00
25610;BME280;13479;49.044;8.716;2022-09-13T08:47:33;98635.03;;;28.81;36.40
25610;BME280;13479;49.044;8.716;2022-09-13T08:52:45;98652.41;;;32.48;30.26
25610;BME280;13479;49.044;8.716;2022-09-13T08:58:24;98663.13;;;31.29;31.97
25610;BME280;13479;49.044;8.716;2022-09-13T09:06:24;98631.34;;;30.30;33.62
25610;BME280;13479;49.044;8.716;2022-09-13T09:11:35;98598.38;;;29.73;34.46
25610;BME280;13479;49.044;8.716;2022-09-13T09:14:29;98595.34;;;29.74;34.55
25610;BME280;13479;49.044;8.716;2022-09-13T09:17:01;98604.50;;;30.16;33.83
25610;BME280;13479;49.044;8.716;2022-09-13T09:19:39;98629.19;;;30.89;32.83
25610;BME280;13479;49.044;8.716;2022-09-13T09:22:13;98638.38;;;32.50;30.75
25610;BME280;13479;49.044;8.716;2022-09-13T09:24:47;98643.41;;;34.75;27.39
25610;BME280;13479;49.044;8.716;2022-09-13T09:27:16;98648.00;;;37.02;25.19
25610;BME280;13479;49.044;8.716;2022-09-13T09:29:43;98666.97;;;38.51;23.04
25610;BME280;13479;49.044;8.716;2022-09-13T09:32:27;98688.47;;;38.80;23.13
25610;BME280;13479;49.044;8.716;2022-09-13T09:37:41;98701.00;;;37.27;22.80
25610;BME280;13479;49.044;8.716;2022-09-13T09:40:12;98690.38;;;36.29;24.58
25610;BME280;13479;49.044;8.716;2022-09-13T09:42:45;98692.41;;;35.72;25.57
25610;BME280;13479;49.044;8.716;2022-09-13T09:45:32;98681.53;;;36.04;24.99
25610;BME280;13479;49.044;8.716;2022-09-13T09:48:04;98686.34;;;36.49;24.58
25610;BME280;13479;49.044;8.716;2022-09-13T09:50:37;98704.06;;;35.97;25.17
25610;BME280;13479;49.044;8.716;2022-09-13T09:53:08;98687.78;;;35.54;25.70
25610;BME280;13479;49.044;8.716;2022-09-13T09:55:44;98671.31;;;35.35;25.79
25610;BME280;13479;49.044;8.716;2022-09-13T09:58:11;98663.94;;;36.14;25.76
25610;BME280;13479;49.044;8.716;2022-09-13T10:00:54;98658.94;;;36.84;24.13
25610;BME280;13479;49.044;8.716;2022-09-13T10:03:27;98669.63;;;36.77;23.96
25610;BME280;13479;49.044;8.716;2022-09-13T10:06:10;98676.00;;;35.90;24.29
25610;BME280;13479;49.044;8.716;2022-09-13T10:08:39;98669.13;;;35.04;25.18
25610;BME280;13479;49.044;8.716;2022-09-13T10:11:05;98662.78;;;34.70;25.33
25610;BME280;13479;49.044;8.716;2022-09-13T10:13:31;98646.50;;;34.36;26.10
25610;BME280;13479;49.044;8.716;2022-09-13T10:16:02;98641.94;;;34.64;25.92
25610;BME280;13479;49.044;8.716;2022-09-13T10:18:32;98651.00;;;34.51;25.37
25610;BME280;13479;49.044;8.716;2022-09-13T10:21:04;98652.53;;;34.18;25.87
25610;BME280;13479;49.044;8.716;2022-09-13T10:23:34;98629.00;;;34.26;25.95
25610;BME280;13479;49.044;8.716;2022-09-13T10:26:19;98631.69;;;34.31;24.68
25610;BME280;13479;49.044;8.716;2022-09-13T10:31:17;98641.97;;;35.11;24.35
25610;BME280;13479;49.044;8.716;2022-09-13T10:36:17;98641.81;;;36.14;23.04
25610;BME280;13479;49.044;8.716;2022-09-13T10:39:11;98650.09;;;36.14;23.28
25610;BME280;13479;49.044;8.716;2022-09-13T10:41:42;98651.09;;;35.95;23.38
25610;BME280;13479;49.044;8.716;2022-09-13T10:44:38;98660.19;;;35.40;23.64
25610;BME280;13479;49.044;8.716;2022-09-13T10:47:10;98663.41;;;35.00;24.21
25610;BME280;13479;49.044;8.716;2022-09-13T10:49:55;98660.25;;;34.74;24.20
25610;BME280;13479;49.044;8.716;2022-09-13T10:52:32;98658.13;;;34.32;25.11
25610;BME280;13479;49.044;8.716;2022-09-13T10:57:45;98641.50;;;33.32;26.30
25610;BME280;13479;49.044;8.716;2022-09-13T11:00:14;98618.13;;;32.75;26.78
25610;BME280;13479;49.044;8.716;2022-09-13T11:05:21;98622.34;;;32.23;28.48
25610;BME280;13479;49.044;8.716;2022-09-13T11:08:17;98625.28;;;31.97;29.12
25610;BME280;13479;49.044;8.716;2022-09-13T11:11:09;98614.34;;;31.86;29.74
25610;BME280;13479;49.044;8.716;2022-09-13T11:21:36;98593.31;;;31.66;30.16
25610;BME280;13479;49.044;8.716;2022-09-13T11:46:26;98554.75;;;31.42;30.38
25610;BME280;13479;49.044;8.716;2022-09-13T11:51:53;98563.69;;;31.63;30.56
25610;BME280;13479;49.044;8.716;2022-09-13T11:54:35;98554.31;;;31.80;30.94
25610;BME280;13479;49.044;8.716;2022-09-13T11:57:16;98554.81;;;31.82;31.24
25610;BME280;13479;49.044;8.716;2022-09-13T11:59:51;98544.16;;;31.80;30.62
25610;BME280;13479;49.044;8.716;2022-09-13T12:02:25;98538.41;;;31.77;30.70
25610;BME280;13479;49.044;8.716;2022-09-13T12:05:05;98522.81;;;31.72;31.40
25610;BME280;13479;49.044;8.716;2022-09-13T12:07:43;98512.09;;;31.70;31.41
25610;BME280;13479;49.044;8.716;2022-09-13T12:10:18;98514.31;;;31.68;31.81
25610;BME280;13479;49.044;8.716;2022-09-13T12:12:48;98514.84;;;31.65;31.46
25610;BME280;13479;49.044;8.716;2022-09-13T12:15:21;98515.53;;;31.47;31.47
25610;BME280;13479;49.044;8.716;2022-09-13T12:17:53;98499.09;;;31.41;32.23
25610;BME280;13479;49.044;8.716;2022-09-13T12:20:42;98506.66;;;31.60;30.88
25610;BME280;13479;49.044;8.716;2022-09-13T12:23:29;98506.59;;;31.70;30.51
25610;BME280;13479;49.044;8.716;2022-09-13T12:28:27;98505.00;;;31.59;29.42
25610;BME280;13479;49.044;8.716;2022-09-13T12:30:58;98517.75;;;31.39;29.40
25610;BME280;13479;49.044;8.716;2022-09-13T12:33:25;98510.41;;;31.24;29.20
25610;BME280;13479;49.044;8.716;2022-09-13T12:36:16;98517.34;;;31.01;29.75
25610;BME280;13479;49.044;8.716;2022-09-13T12:44:51;98466.50;;;30.38;31.79
25610;BME280;13479;49.044;8.716;2022-09-13T12:55:26;98447.94;;;30.14;32.96
25610;BME280;13479;49.044;8.716;2022-09-13T13:01:07;98449.03;;;30.34;33.16
25610;BME280;13479;49.044;8.716;2022-09-13T13:03:41;98441.31;;;30.36;33.10
25610;BME280;13479;49.044;8.716;2022-09-13T13:06:24;98445.16;;;30.40;32.93
25610;BME280;13479;49.044;8.716;2022-09-13T13:08:53;98438.56;;;30.51;32.93
25610;BME280;13479;49.044;8.716;2022-09-13T13:11:23;98441.84;;;30.59;32.67
25610;BME280;13479;49.044;8.716;2022-09-13T13:13:57;98440.97;;;30.74;32.36
25610;BME280;13479;49.044;8.716;2022-09-13T13:16:30;98434.09;;;30.87;32.48
25610;BME280;13479;49.044;8.716;2022-09-13T13:19:27;98449.97;;;30.90;31.52
25610;BME280;13479;49.044;8.716;2022-09-13T13:21:54;98437.38;;;30.84;32.30
25610;BME280;13479;49.044;8.716;2022-09-13T13:26:48;98447.84;;;30.71;32.34
25610;BME280;13479;49.044;8.716;2022-09-13T13:32:04;98444.06;;;30.57;31.73
25610;BME280;13479;49.044;8.716;2022-09-13T13:34:40;98442.13;;;30.42;32.55
25610;BME280;13479;49.044;8.716;2022-09-13T13:39:42;98427.69;;;30.15;32.62
25610;BME280;13479;49.044;8.716;2022-09-13T13:42:27;98415.13;;;30.09;32.60
25610;BME280;13479;49.044;8.716;2022-09-13T13:45:03;98415.94;;;30.04;32.21
25610;BME280;13479;49.044;8.716;2022-09-13T13:50:17;98400.84;;;29.92;33.30
25610;BME280;13479;49.044;8.716;2022-09-13T13:55:30;98422.75;;;30.33;31.20
25610;BME280;13479;49.044;8.716;2022-09-13T14:00:33;98434.22;;;30.25;30.86
25610;BME280;13479;49.044;8.716;2022-09-13T14:03:14;98429.88;;;30.18;31.27
25610;BME280;13479;49.044;8.716;2022-09-13T14:05:56;98421.66;;;30.13;31.17
25610;BME280;13479;49.044;8.716;2022-09-13T14:08:35;98423.56;;;30.08;30.42
25610;BME280;13479;49.044;8.716;2022-09-13T14:16:46;98413.16;;;29.84;31.30
25610;BME280;13479;49.044;8.716;2022-09-13T14:19:25;98397.03;;;29.82;31.11
25610;BME280;13479;49.044;8.716;2022-09-13T14:24:38;98387.47;;;29.85;31.40
25610;BME280;13479;49.044;8.716;2022-09-13T14:27:04;98389.09;;;30.07;30.57
25610;BME280;13479;49.044;8.716;2022-09-13T14:29:29;98401.97;;;30.22;30.35
25610;BME280;13479;49.044;8.716;2022-09-13T14:32:04;98406.03;;;30.19;29.98
25610;BME280;13479;49.044;8.716;2022-09-13T14:34:36;98399.75;;;30.13;30.21
25610;BME280;13479;49.044;8.716;2022-09-13T14:37:05;98398.63;;;30.40;29.62
25610;BME280;13479;49.044;8.716;2022-09-13T14:39:32;98392.59;;;30.54;29.69
25610;BME280;13479;49.044;8.716;2022-09-13T14:42:13;98400.72;;;30.69;29.61
25610;BME280;13479;49.044;8.716;2022-09-13T14:44:48;98384.47;;;30.88;29.92
25610;BME280;13479;49.044;8.716;2022-09-13T14:47:31;98376.72;;;31.06;30.04
25610;BME280;13479;49.044;8.716;2022-09-13T14:50:04;98379.63;;;31.25;28.85
25610;BME280;13479;49.044;8.716;2022-09-13T14:52:35;98383.25;;;31.55;28.22
25610;BME280;13479;49.044;8.716;2022-09-13T14:55:07;98376.06;;;31.64;28.05
25610;BME280;13479;49.044;8.716;2022-09-13T14:57:41;98384.56;;;31.63;27.62
25610;BME280;13479;49.044;8.716;2022-09-13T15:02:39;98367.63;;;31.16;27.92
25610;BME280;13479;49.044;8.716;2022-09-13T15:05:12;98364.50;;;30.83;28.84
25610;BME280;13479;49.044;8.716;2022-09-13T15:07:40;98354.50;;;30.57;29.17
25610;BME280;13479;49.044;8.716;2022-09-13T15:10:20;98345.50;;;30.41;28.75
25610;BME280;13479;49.044;8.716;2022-09-13T15:15:32;98322.03;;;30.19;29.21
25610;BME280;13479;49.044;8.716;2022-09-13T15:18:02;98312.75;;;30.05;29.52
25610;BME280;13479;49.044;8.716;2022-09-13T15:20:52;98304.00;;;30.03;29.16
25610;BME280;13479;49.044;8.716;2022-09-13T15:23:24;98287.34;;;29.99;29.70
25610;BME280;13479;49.044;8.716;2022-09-13T15:25:56;98281.31;;;29.87;29.35
25610;BME280;13479;49.044;8.716;2022-09-13T15:28:28;98302.69;;;29.80;28.71
25610;BME280;13479;49.044;8.716;2022-09-13T15:30:55;98306.78;;;29.82;28.53
25610;BME280;13479;49.044;8.716;2022-09-13T15:33:29;98299.13;;;29.74;29.03
25610;BME280;13479;49.044;8.716;2022-09-13T15:41:30;98262.25;;;29.51;29.80
25610;BME280;13479;49.044;8.716;2022-09-13T15:43:56;98260.34;;;29.46;30.52
25610;BME280;13479;49.044;8.716;2022-09-13T15:46:22;98254.88;;;29.41;30.43
25610;BME280;13479;49.044;8.716;2022-09-13T15:48:53;98246.41;;;29.37;30.46
25610;BME280;13479;49.044;8.716;2022-09-13T15:51:19;98242.84;;;29.32;30.87
25610;BME280;13479;49.044;8.716;2022-09-13T15:53:45;98239.56;;;29.19;31.23
25610;BME280;13479;49.044;8.716;2022-09-13T15:56:29;98247.50;;;29.10;30.34
25610;BME280;13479;49.044;8.716;2022-09-13T15:58:55;98252.41;;;29.08;29.88
25610;BME280;13479;49.044;8.716;2022-09-13T16:01:20;98260.31;;;29.00;29.96
25610;BME280;13479;49.044;8.716;2022-09-13T16:03:45;98252.66;;;28.91;30.71
25610;BME280;13479;49.044;8.716;2022-09-13T16:06:11;98237.38;;;28.85;31.29
25610;BME280;13479;49.044;8.716;2022-09-13T16:08:37;98225.34;;;28.76;31.88
25610;BME280;13479;49.044;8.716;2022-09-13T16:11:03;98229.44;;;28.73;32.33
25610;BME280;13479;49.044;8.716;2022-09-13T16:13:29;98220.91;;;28.59;32.45
25610;BME280;13479;49.044;8.716;2022-09-13T16:15:54;98218.19;;;28.54;32.79
25610;BME280;13479;49.044;8.716;2022-09-13T16:18:21;98226.09;;;28.56;31.83
25610;BME280;13479;49.044;8.716;2022-09-13T16:20:47;98233.22;;;28.57;31.27
25610;BME280;13479;49.044;8.716;2022-09-13T16:23:12;98233.19;;;28.46;31.49
25610;BME280;13479;49.044;8.716;2022-09-13T16:25:38;98227.41;;;28.38;31.91
25610;BME280;13479;49.044;8.716;2022-09-13T16:28:04;98229.59;;;28.30;31.82
25610;BME280;13479;49.044;8.716;2022-09-13T16:30:29;98214.84;;;28.26;31.89
25610;BME280;13479;49.044;8.716;2022-09-13T16:32:56;98204.41;;;28.13;32.46
25610;BME280;13479;49.044;8.716;2022-09-13T16:35:22;98208.22;;;28.12;32.74
25610;BME280;13479;49.044;8.716;2022-09-13T16:37:48;98209.88;;;28.13;32.41
25610;BME280;13479;49.044;8.716;2022-09-13T16:40:16;98205.72;;;28.05;32.50
25610;BME280;13479;49.044;8.716;2022-09-13T16:42:42;98208.69;;;27.98;32.57
25610;BME280;13479;49.044;8.716;2022-09-13T16:45:08;98215.75;;;27.89;32.67
25610;BME280;13479;49.044;8.716;2022-09-13T16:47:34;98208.03;;;27.75;33.56
25610;BME280;13479;49.044;8.716;2022-09-13T16:49:59;98205.81;;;27.67;34.72
25610;BME280;13479;49.044;8.716;2022-09-13T16:52:25;98221.63;;;27.65;37.67
25610;BME280;13479;49.044;8.716;2022-09-13T16:54:50;98228.38;;;27.52;38.67
25610;BME280;13479;49.044;8.716;2022-09-13T16:57:16;98197.50;;;27.41;38.63
25610;BME280;13479;49.044;8.716;2022-09-13T16:59:42;98189.78;;;27.28;39.44
25610;BME280;13479;49.044;8.716;2022-09-13T17:02:11;98187.44;;;27.09;39.31
25610;BME280;13479;49.044;8.716;2022-09-13T17:04:36;98181.34;;;26.97;39.46
25610;BME280;13479;49.044;8.716;2022-09-13T17:07:01;98190.09;;;26.99;39.06
25610;BME280;13479;49.044;8.716;2022-09-13T17:09:29;98188.13;;;26.89;38.91
25610;BME280;13479;49.044;8.716;2022-09-13T17:11:55;98198.75;;;26.91;37.80
25610;BME280;13479;49.044;8.716;2022-09-13T17:14:20;98197.84;;;26.80;38.23
25610;BME280;13479;49.044;8.716;2022-09-13T17:16:51;98186.81;;;26.70;38.27
25610;BME280;13479;49.044;8.716;2022-09-13T17:19:23;98184.28;;;26.58;38.80
25610;BME280;13479;49.044;8.716;2022-09-13T17:21:49;98180.69;;;26.52;38.43
25610;BME280;13479;49.044;8.716;2022-09-13T17:24:15;98173.19;;;26.37;38.96
25610;BME280;13479;49.044;8.716;2022-09-13T17:26:41;98179.16;;;26.34;38.80
25610;BME280;13479;49.044;8.716;2022-09-13T17:29:09;98171.94;;;26.23;38.92
25610;BME280;13479;49.044;8.716;2022-09-13T17:31:34;98178.72;;;25.98;39.81
25610;BME280;13479;49.044;8.716;2022-09-13T17:34:00;98170.38;;;25.82;40.44
25610;BME280;13479;49.044;8.716;2022-09-13T17:36:25;98170.63;;;25.81;40.68
25610;BME280;13479;49.044;8.716;2022-09-13T17:38:54;98165.31;;;25.69;40.67
25610;BME280;13479;49.044;8.716;2022-09-13T17:41:21;98161.44;;;25.65;41.10
25610;BME280;13479;49.044;8.716;2022-09-13T17:43:46;98157.34;;;25.62;40.90
25610;BME280;13479;49.044;8.716;2022-09-13T17:46:14;98161.00;;;25.51;40.92
25610;BME280;13479;49.044;8.716;2022-09-13T17:48:40;98159.03;;;25.46;41.22
25610;BME280;13479;49.044;8.716;2022-09-13T17:51:09;98151.38;;;25.43;41.66
25610;BME280;13479;49.044;8.716;2022-09-13T17:53:39;98152.72;;;25.40;41.72
25610;BME280;13479;49.044;8.716;2022-09-13T17:56:05;98155.50;;;25.28;41.86
25610;BME280;13479;49.044;8.716;2022-09-13T17:58:31;98154.28;;;25.19;42.15
25610;BME280;13479;49.044;8.716;2022-09-13T18:01:06;98160.16;;;25.11;42.72
25610;BME280;13479;49.044;8.716;2022-09-13T18:03:32;98166.22;;;25.01;43.13
25610;BME280;13479;49.044;8.716;2022-09-13T18:05:58;98158.03;;;24.96;42.97
25610;BME280;13479;49.044;8.716;2022-09-13T18:08:25;98162.78;;;24.89;43.23
25610;BME280;13479;49.044;8.716;2022-09-13T18:10:51;98162.63;;;24.95;43.32
25610;BME280;13479;49.044;8.716;2022-09-13T18:13:16;98166.16;;;24.79;43.44
25610;BME280;13479;49.044;8.716;2022-09-13T18:15:42;98163.03;;;24.70;43.78
25610;BME280;13479;49.044;8.716;2022-09-13T18:18:07;98164.22;;;24.62;44.47
25610;BME280;13479;49.044;8.716;2022-09-13T18:20:33;98164.81;;;24.64;44.43
25610;BME280;13479;49.044;8.716;2022-09-13T18:22:58;98166.28;;;24.55;44.70
25610;BME280;13479;49.044;8.716;2022-09-13T18:25:23;98164.78;;;24.47;44.73
25610;BME280;13479;49.044;8.716;2022-09-13T18:27:49;98176.38;;;24.43;45.01
25610;BME280;13479;49.044;8.716;2022-09-13T18:30:15;98181.94;;;24.36;44.98
25610;BME280;13479;49.044;8.716;2022-09-13T18:32:40;98187.41;;;24.24;45.38
25610;BME280;13479;49.044;8.716;2022-09-13T18:35:05;98191.09;;;24.18;45.46
25610;BME280;13479;49.044;8.716;2022-09-13T18:37:31;98189.00;;;24.08;45.60
25610;BME280;13479;49.044;8.716;2022-09-13T18:39:58;98181.81;;;24.14;45.56
25610;BME280;13479;49.044;8.716;2022-09-13T18:42:23;98188.56;;;23.99;46.03
25610;BME280;13479;49.044;8.716;2022-09-13T18:44:48;98178.88;;;23.91;46.37
25610;BME280;13479;49.044;8.716;2022-09-13T18:47:15;98173.00;;;23.95;46.73
25610;BME280;13479;49.044;8.716;2022-09-13T18:49:41;98184.22;;;23.74;47.32
25610;BME280;13479;49.044;8.716;2022-09-13T18:52:06;98194.84;;;23.64;47.51
25610;BME280;13479;49.044;8.716;2022-09-13T18:54:31;98196.25;;;23.67;47.46
25610;BME280;13479;49.044;8.716;2022-09-13T18:56:57;98195.09;;;23.51;47.82
25610;BME280;13479;49.044;8.716;2022-09-13T18:59:23;98191.44;;;23.45;48.34
25610;BME280;13479;49.044;8.716;2022-09-13T19:01:48;98208.19;;;23.30;48.61
25610;BME280;13479;49.044;8.716;2022-09-13T19:04:18;98211.06;;;23.17;48.89
25610;BME280;13479;49.044;8.716;2022-09-13T19:06:46;98213.09;;;23.09;49.45
25610;BME280;13479;49.044;8.716;2022-09-13T19:09:12;98206.03;;;23.08;49.48
25610;BME280;13479;49.044;8.716;2022-09-13T19:11:40;98203.41;;;23.02;49.68
25610;BME280;13479;49.044;8.716;2022-09-13T19:14:06;98200.00;;;23.06;49.67
25610;BME280;13479;49.044;8.716;2022-09-13T19:16:32;98204.72;;;22.99;49.73
25610;BME280;13479;49.044;8.716;2022-09-13T19:18:58;98207.28;;;22.94;50.36
25610;BME280;13479;49.044;8.716;2022-09-13T19:21:26;98206.22;;;22.95;50.32
25610;BME280;13479;49.044;8.716;2022-09-13T19:23:52;98207.78;;;22.91;50.72
25610;BME280;13479;49.044;8.716;2022-09-13T19:26:22;98205.53;;;22.88;50.79